Relevés horaires Laegern (Suisse)


Relevés horaires à Laegern - Mercredi 21 Juill. 2021
Heure UTC1 Température [°C] Vent [km/h] Hum. [%] Pres.4 [hPa] Visi. [Km] Nébu. [octa] Préc.5 [mm] Cond.
2m. Res. Ros. Dir.2 Vit. Moy. Raf.3
23:00 17.8 17.8 12.1 NNE 0.0 -- 25.9 69 850(0.0/3h) -- -- -- --
22:00 18.6 18.6 12.6 N 0.0 -- 27.8 68 850(0.3/3h) -- -- -- --
21:00 19.6 19.6 13.5 NO 0.0 -- 22.2 68 850(0.3/3h) -- -- -- --
20:00 20.6 20.6 12.3 NO 0.0 -- 18.5 59 850(0.5/3h) -- -- -- --
19:00 21.4 21.4 10.9 NO 0.0 -- 16.7 51 850(0.2/3h) -- -- -- --
18:00 22.3 22.3 9.7 NE 0.0 -- 20.4 45 850(0.2/3h) -- -- -- --
17:00 22.5 22.5 9.9 NE 0.0 -- 13.0 45 850(0.0/3h) -- -- -- --
16:00 22.5 22.5 9.5 NE 0.0 -- 16.7 44 850(-0.2/3h) -- -- -- --
15:00 22.5 22.5 9.5 N 0.0 -- 20.4 44 850(-0.3/3h) -- -- -- --
14:00 22.2 22.2 10.7 N 0.0 -- 18.5 48 850(-0.5/3h) -- -- -- --
13:00 21.2 21.2 11.0 NNE 0.0 -- 20.4 52 850(-0.3/3h) -- -- -- --
12:00 20.8 20.8 11.5 NE 0.0 -- 22.2 55 850(-0.2/3h) -- -- -- --
11:00 19.8 19.8 12.6 N 0.0 -- 13.0 63 850(0.2/3h) -- -- -- --
10:00 19.1 19.1 13.0 N 0.0 -- 13.0 68 850(0.4/3h) -- -- -- --
09:00 17.7 17.7 11.9 NNE 0.0 -- 22.2 69 850(0.8/3h) -- -- -- --
08:00 16.1 16.1 10.5 N 0.0 -- 11.1 69 850(1.0/3h) -- -- -- --
07:00 14.9 14.9 9.9 NE 0.0 -- 22.2 72 850(1.2/3h) -- -- -- --
06:00 14.1 14.1 9.3 NNE 0.0 -- 33.3 73 850(1.1/3h) -- -- -- --
05:00 14.2 14.2 8.9 NNE 0.0 -- 25.9 70 850(0.5/3h) -- -- -- --
04:00 14.3 14.3 8.6 N 0.0 -- 25.9 69 850(0.0/3h) -- -- -- --
03:00 14.6 14.6 8.5 NNE 0.0 -- 33.3 67 850(-0.5/3h) -- -- -- --
02:00 14.9 14.9 8.7 N 0.0 -- 29.6 66 850(-0.5/3h) -- -- -- --
01:00 15.2 15.2 9.2 NNE 0.0 -- 33.3 67 850(-0.3/3h) -- -- -- --
00:00 15.6 15.6 10.1 N 0.0 -- 35.2 70 850(0.0/3h) -- -- -- --

1 Coordinated Universal Time. Actuellement il est 13:00 locale et 11:00 UTC.

2 Le vent souffle depuis la direction indiquée vers la direction oposée.

3 Les rafales max. sont disponible 40 min après l'heure du relevé.

4 Pour les stations d'altitude (plus de 600m) le géopotentiel du niveau le plus proche de la pression obligatoire est indiqué.

5 Les stations disposant d'un diffuseur peuvent indiquer "trace". Cela signifie que des précipitations ont touchés le sol mais que la quantité est inférieure à 0.1 mm.

Copyright

Les données affichées sur cette page sont la propriété exclusive de Météo Suisse.

Récapitulatif de la journée
Température [°C] Vent [km/h] Ensoleillement4 [h] Precipitations totale5 [mm] Pression [Hpa]
Min1 Max.2 Moy.3 Max. Min Max.
14.1 22.9 0 35.2 14 h 6 min 0 850.0 850.0

1 Température minimale relevée entre 18:00 UTC la veille et 18:00 UTC le jour donné.

2 Température maximale relevée entre 06:00 UTC le jour donné et 06:00 UTC le lendemain.

3 Vent moyen de la journée basé sur les relevés horaires.

4 Ensoleillement en heures relevé entre 06:00 UTC la veille et 06:00 UTC le jour donné.

5 Précipitations totales tombées entre 06:00 UTC la jour donné et 06:00 UTC le lendemain.

Graphiques horaires